Terminal Aerodrome Forecast
Issued by NWS

Home | Current Version | Previous Version | Text Only | Print | Product List | Glossary On
Versions: 1 2 3 4 5 6 7 8 9 10 11 12 13 14
000
FTUS46 KPDT 222300
TAFYKM
TAF
KYKM 222320Z 2300/2324 33009KT P6SM VCSH BKN080
      TEMPO 2300/2304 -TSRA BKN070CB
     FM230400 31007KT P6SM BKN080
     FM230800 28008KT P6SM SCT080
     FM231600 VRB04KT P6SM SKC
     FM232000 14005KT P6SM FEW080=

USA.gov is the U.S. government's official web portal to all federal, state and local government web resources and services.